createdAt,value
2022-08-03T00:01:50.744Z,23.05
2022-08-03T00:04:17.697Z,22.82
2022-08-03T00:06:44.378Z,22.89
2022-08-03T00:09:11.954Z,22.92
2022-08-03T00:11:38.719Z,22.84
2022-08-03T00:14:07.055Z,22.56
2022-08-03T00:16:34.130Z,22.82
2022-08-03T00:19:01.617Z,22.76
2022-08-03T00:21:28.935Z,22.70
2022-08-03T00:23:55.644Z,22.75
2022-08-03T00:26:22.302Z,22.72
2022-08-03T00:28:49.468Z,22.67
2022-08-03T00:31:16.111Z,22.65
2022-08-03T00:33:58.034Z,22.63
2022-08-03T00:36:27.295Z,22.59
2022-08-03T00:38:54.022Z,22.48
2022-08-03T00:41:20.670Z,22.54
2022-08-03T00:43:47.174Z,22.52
2022-08-03T00:46:19.062Z,22.50
2022-08-03T00:48:51.618Z,22.49
2022-08-03T00:51:19.807Z,22.38
2022-08-03T00:53:46.467Z,22.38
2022-08-03T00:56:14.457Z,22.38
2022-08-03T00:58:43.453Z,22.36
2022-08-03T01:01:10.691Z,22.34
2022-08-03T01:03:37.287Z,22.31
2022-08-03T01:06:19.090Z,22.27
2022-08-03T01:08:48.251Z,22.28
2022-08-03T01:11:14.674Z,22.26
2022-08-03T01:14:17.877Z,22.24
2022-08-03T01:16:35.834Z,22.22
2022-08-03T01:19:24.941Z,22.18
2022-08-03T01:21:57.590Z,22.16
2022-08-03T01:24:44.572Z,21.82
2022-08-03T01:27:52.231Z,22.11
2022-08-03T01:30:19.095Z,22.10
2022-08-03T01:33:01.444Z,21.76
2022-08-03T01:35:32.858Z,21.97
2022-08-03T01:38:09.660Z,21.68
2022-08-03T01:40:39.392Z,21.96
2022-08-03T01:43:08.797Z,21.92
2022-08-03T01:45:37.182Z,21.57
2022-08-03T01:48:06.657Z,21.82
2022-08-03T01:50:34.660Z,21.84
2022-08-03T01:53:02.328Z,21.81
2022-08-03T01:55:31.637Z,21.21
2022-08-03T01:58:05.765Z,21.69
2022-08-03T02:00:36.448Z,21.72
2022-08-03T02:03:06.674Z,21.39
2022-08-03T02:05:34.619Z,21.10
2022-08-03T02:08:03.617Z,21.34
2022-08-03T02:10:34.471Z,21.63
2022-08-03T02:13:02.834Z,21.61
2022-08-03T02:15:31.454Z,21.57
2022-08-03T02:18:00.088Z,21.58
2022-08-03T02:20:27.805Z,21.57
2022-08-03T02:22:54.546Z,21.47
2022-08-03T02:25:21.202Z,21.52
2022-08-03T02:27:55.026Z,21.26
2022-08-03T02:30:23.546Z,21.46
2022-08-03T02:32:57.742Z,21.14
2022-08-03T02:35:26.750Z,21.09
2022-08-03T02:37:59.813Z,21.38
2022-08-03T02:40:29.163Z,21.34
2022-08-03T02:42:59.378Z,21.32
2022-08-03T02:45:27.699Z,21.00
2022-08-03T02:47:59.879Z,21.00
2022-08-03T02:50:28.028Z,21.31
2022-08-03T02:52:55.962Z,21.24
2022-08-03T02:55:25.985Z,21.23
2022-08-03T02:57:54.026Z,21.26
2022-08-03T03:00:27.516Z,21.28
2022-08-03T03:03:01.376Z,21.22
2022-08-03T03:05:55.791Z,21.29
2022-08-03T03:08:20.674Z,21.28
2022-08-03T03:10:48.935Z,20.96
2022-08-03T03:13:23.042Z,21.26
2022-08-03T03:15:50.723Z,21.15
2022-08-03T03:18:22.301Z,21.21
2022-08-03T03:20:51.461Z,21.16
2022-08-03T03:23:19.304Z,21.15
2022-08-03T03:25:46.530Z,21.12
2022-08-03T03:28:13.267Z,21.12
2022-08-03T03:30:39.791Z,21.10
2022-08-03T03:33:06.660Z,21.12
2022-08-03T03:35:37.071Z,21.00
2022-08-03T03:38:06.190Z,21.16
2022-08-03T03:40:34.703Z,21.17
2022-08-03T03:43:01.360Z,21.20
2022-08-03T03:45:28.988Z,21.19
2022-08-03T03:47:55.647Z,21.20
2022-08-03T03:50:23.775Z,21.17
2022-08-03T03:52:50.376Z,21.15
2022-08-03T03:55:18.340Z,21.04
2022-08-03T03:57:45.696Z,21.21
2022-08-03T04:00:14.010Z,21.23
2022-08-03T04:02:40.863Z,21.26
2022-08-03T04:05:08.556Z,21.25
2022-08-03T04:07:54.519Z,21.24
2022-08-03T04:10:23.497Z,21.18
2022-08-03T04:12:53.991Z,21.26
2022-08-03T04:15:23.901Z,20.98
2022-08-03T04:17:53.600Z,21.28
2022-08-03T04:20:21.521Z,21.30
2022-08-03T04:22:50.813Z,21.22
2022-08-03T04:25:20.776Z,21.21
2022-08-03T04:28:28.308Z,20.87
2022-08-03T04:30:38.738Z,21.07
2022-08-03T04:33:07.369Z,21.21
2022-08-03T04:36:01.203Z,21.28
2022-08-03T04:38:25.514Z,21.28
2022-08-03T04:40:52.822Z,21.27
2022-08-03T04:43:22.439Z,21.21
2022-08-03T04:45:50.123Z,21.30
2022-08-03T04:48:17.404Z,21.32
2022-08-03T04:50:44.589Z,21.24
2022-08-03T04:53:11.264Z,21.33
2022-08-03T04:55:37.897Z,21.01
2022-08-03T04:58:04.678Z,21.36
2022-08-03T05:00:31.292Z,21.39
2022-08-03T05:02:58.071Z,21.39
2022-08-03T05:05:24.726Z,21.36
2022-08-03T05:07:51.537Z,21.44
2022-08-03T05:10:19.712Z,21.45
2022-08-03T05:12:48.413Z,21.11
2022-08-03T05:15:15.461Z,21.47
2022-08-03T05:17:41.998Z,21.49
2022-08-03T05:20:09.365Z,21.48
2022-08-03T05:22:35.932Z,21.47
2022-08-03T05:25:03.220Z,21.48
2022-08-03T05:27:29.818Z,21.51
2022-08-03T05:29:56.340Z,21.52
2022-08-03T05:32:42.863Z,21.33
2022-08-03T05:36:00.709Z,21.55
2022-08-03T05:37:56.217Z,21.54
2022-08-03T05:40:22.747Z,21.55
2022-08-03T05:42:49.270Z,21.58
2022-08-03T05:45:15.763Z,21.62
2022-08-03T05:47:42.386Z,21.65
2022-08-03T05:50:09.259Z,21.69
2022-08-03T05:52:35.802Z,21.73
2022-08-03T05:55:05.392Z,21.77
2022-08-03T05:57:31.947Z,21.82
2022-08-03T05:59:58.996Z,21.87
2022-08-03T06:02:28.372Z,21.93
2022-08-03T06:04:54.934Z,21.96
2022-08-03T06:07:21.465Z,22.03
2022-08-03T06:10:33.849Z,22.07
2022-08-03T06:12:34.793Z,22.10
2022-08-03T06:15:02.096Z,22.13
2022-08-03T06:17:28.680Z,22.14
2022-08-03T06:20:04.912Z,22.17
2022-08-03T06:22:31.428Z,22.20
2022-08-03T06:24:58.549Z,22.23
2022-08-03T06:27:37.032Z,22.25
2022-08-03T06:30:05.251Z,22.28
2022-08-03T06:32:32.009Z,22.28
2022-08-03T06:34:58.538Z,22.30
2022-08-03T06:37:25.350Z,22.31
2022-08-03T06:39:51.875Z,22.32
2022-08-03T06:42:18.621Z,22.30
2022-08-03T06:44:47.242Z,22.36
2022-08-03T06:47:13.761Z,22.39
2022-08-03T06:49:40.388Z,22.36
2022-08-03T06:52:07.153Z,22.35
2022-08-03T06:54:33.959Z,22.35
2022-08-03T06:57:00.486Z,22.35
2022-08-03T07:00:09.680Z,22.37
2022-08-03T07:02:19.161Z,22.40
2022-08-03T07:04:49.530Z,22.42
2022-08-03T07:07:16.260Z,22.42
2022-08-03T07:09:42.761Z,22.45
2022-08-03T07:12:23.942Z,22.52
2022-08-03T07:14:50.451Z,22.62
2022-08-03T07:17:16.989Z,22.65
2022-08-03T07:19:43.484Z,22.77
2022-08-03T07:22:10.074Z,22.80
2022-08-03T07:24:36.617Z,22.83
2022-08-03T07:27:03.845Z,22.98
2022-08-03T07:29:30.352Z,23.06
2022-08-03T07:32:01.969Z,23.14
2022-08-03T07:34:28.596Z,23.22
2022-08-03T07:36:55.208Z,23.27
2022-08-03T07:39:21.730Z,23.25
2022-08-03T07:41:48.385Z,23.26
2022-08-03T07:44:14.915Z,23.26
2022-08-03T07:46:41.498Z,23.25
2022-08-03T07:49:08.047Z,23.25
2022-08-03T07:51:34.774Z,23.39
2022-08-03T07:54:01.740Z,23.48
2022-08-03T07:56:28.865Z,23.55
2022-08-03T07:58:55.572Z,23.63
2022-08-03T08:01:22.729Z,23.67
2022-08-03T08:03:53.277Z,23.79
2022-08-03T08:06:20.706Z,23.85
2022-08-03T08:08:47.463Z,23.98
2022-08-03T08:11:14.218Z,24.13
2022-08-03T08:13:40.766Z,24.28
2022-08-03T08:16:07.379Z,24.24
2022-08-03T08:18:33.917Z,24.35
2022-08-03T08:21:00.472Z,24.34
2022-08-03T08:23:43.515Z,24.38
2022-08-03T08:26:11.745Z,24.47
2022-08-03T08:28:38.679Z,24.60
2022-08-03T08:31:05.456Z,24.69
2022-08-03T08:36:18.649Z,25.00
2022-08-03T08:38:45.329Z,25.13
2022-08-03T08:41:13.777Z,25.21
2022-08-03T08:43:41.330Z,25.44
2022-08-03T08:46:12.388Z,25.23
2022-08-03T08:48:42.111Z,25.56
2022-08-03T08:51:12.189Z,25.35
2022-08-03T08:53:43.111Z,25.64
2022-08-03T08:56:12.661Z,25.65
2022-08-03T08:58:47.010Z,25.75
2022-08-03T09:01:13.650Z,25.72
2022-08-03T09:03:41.060Z,25.66
2022-08-03T09:06:07.625Z,25.61
2022-08-03T09:08:34.264Z,25.62
2022-08-03T09:11:00.950Z,25.66
2022-08-03T09:13:27.476Z,25.70
2022-08-03T09:16:13.709Z,25.77
2022-08-03T09:18:45.983Z,25.86
2022-08-03T09:21:31.658Z,25.99
2022-08-03T09:24:03.658Z,26.10
2022-08-03T09:26:32.710Z,26.21
2022-08-03T09:29:06.812Z,26.27
2022-08-03T09:31:43.495Z,26.23
2022-08-03T09:34:13.018Z,26.38
2022-08-03T09:36:50.475Z,26.30
2022-08-03T09:39:41.213Z,26.63
2022-08-03T09:42:17.359Z,26.46
2022-08-03T09:44:52.020Z,26.79
2022-08-03T09:47:32.941Z,26.90
2022-08-03T09:50:02.734Z,27.07
2022-08-03T09:52:39.037Z,27.10
2022-08-03T09:55:23.543Z,27.21
2022-08-03T09:58:06.770Z,27.03
2022-08-03T10:00:52.132Z,27.37
2022-08-03T10:03:18.709Z,27.44
2022-08-03T10:05:45.289Z,27.41
2022-08-03T10:08:16.966Z,27.37
2022-08-03T10:10:45.096Z,27.23
2022-08-03T10:13:14.057Z,27.30
2022-08-03T10:16:23.182Z,27.41
2022-08-03T10:18:27.947Z,27.52
2022-08-03T10:21:02.982Z,27.48
2022-08-03T10:23:34.510Z,27.16
2022-08-03T10:26:04.016Z,26.99
2022-08-03T10:28:45.341Z,27.15
2022-08-03T10:31:13.957Z,27.06
2022-08-03T10:33:52.090Z,27.05
2022-08-03T10:36:23.676Z,26.97
2022-08-03T10:38:51.568Z,26.89
2022-08-03T10:41:21.130Z,26.86
2022-08-03T10:43:56.431Z,26.63
2022-08-03T10:46:23.493Z,26.89
2022-08-03T10:48:50.793Z,26.95
2022-08-03T10:51:17.439Z,26.94
2022-08-03T10:53:55.017Z,26.77
2022-08-03T10:56:48.060Z,26.79
2022-08-03T10:59:28.145Z,26.86
2022-08-03T11:02:00.008Z,26.73
2022-08-03T11:04:28.810Z,26.86
2022-08-03T11:07:24.172Z,27.04
2022-08-03T11:09:55.854Z,27.19
2022-08-03T11:12:31.263Z,27.31
2022-08-03T11:15:07.509Z,27.27
2022-08-03T11:17:46.925Z,27.57
2022-08-03T11:20:46.895Z,27.67
2022-08-03T11:23:14.693Z,27.78
2022-08-03T11:26:15.212Z,27.99
2022-08-03T11:28:44.327Z,28.27
2022-08-03T11:31:48.248Z,28.56
2022-08-03T11:34:14.757Z,28.82
2022-08-03T11:37:19.415Z,28.88
2022-08-03T11:39:48.179Z,28.85
2022-08-03T11:42:23.739Z,29.08
2022-08-03T11:44:51.691Z,28.98
2022-08-03T11:47:18.594Z,29.14
2022-08-03T11:49:49.322Z,29.37
2022-08-03T11:52:18.798Z,29.60
2022-08-03T11:54:45.637Z,29.85
2022-08-03T11:57:12.286Z,30.03
2022-08-03T11:59:39.008Z,30.20
2022-08-03T12:02:13.485Z,30.17
2022-08-03T12:04:57.595Z,30.09
2022-08-03T12:08:03.174Z,30.02
2022-08-03T12:10:14.540Z,29.84
2022-08-03T12:12:46.040Z,29.69
2022-08-03T12:15:13.230Z,29.67
2022-08-03T12:17:41.194Z,29.69
2022-08-03T12:20:10.281Z,29.69
2022-08-03T12:22:40.667Z,29.70
2022-08-03T12:25:08.916Z,29.55
2022-08-03T12:27:36.079Z,29.83
2022-08-03T12:30:03.861Z,29.76
2022-08-03T12:32:31.402Z,29.68
2022-08-03T12:35:00.226Z,29.61
2022-08-03T12:37:27.500Z,29.57
2022-08-03T12:40:00.413Z,29.26
2022-08-03T12:42:35.088Z,29.41
2022-08-03T12:45:28.316Z,29.25
2022-08-03T12:47:57.982Z,29.17
2022-08-03T12:50:31.374Z,29.08
2022-08-03T12:53:01.276Z,29.06
2022-08-03T12:55:28.207Z,29.16
2022-08-03T12:57:54.768Z,29.12
2022-08-03T13:00:29.425Z,29.08
2022-08-03T13:03:38.215Z,28.74
2022-08-03T13:05:52.535Z,29.02
2022-08-03T13:08:24.513Z,29.08
2022-08-03T13:10:51.383Z,29.15
2022-08-03T13:13:17.930Z,29.25
2022-08-03T13:15:48.123Z,29.32
2022-08-03T13:18:15.253Z,29.34
2022-08-03T13:20:44.172Z,29.30
2022-08-03T13:23:13.000Z,29.29
2022-08-03T13:25:55.074Z,29.37
2022-08-03T13:28:22.638Z,29.55
2022-08-03T13:30:49.360Z,29.75
2022-08-03T13:33:15.917Z,29.89
2022-08-03T13:35:42.428Z,29.88
2022-08-03T13:38:09.005Z,29.84
2022-08-03T13:40:41.806Z,29.79
2022-08-03T13:43:08.660Z,29.75
2022-08-03T13:45:35.225Z,29.88
2022-08-03T13:48:01.870Z,29.89
2022-08-03T13:50:28.375Z,29.95
2022-08-03T13:52:54.911Z,30.07
2022-08-03T13:55:21.404Z,30.20
2022-08-03T13:58:11.747Z,30.28
2022-08-03T14:00:34.611Z,30.37
2022-08-03T14:03:07.939Z,30.39
2022-08-03T14:05:36.095Z,30.36
2022-08-03T14:08:04.169Z,30.06
2022-08-03T14:10:38.827Z,30.06
2022-08-03T14:13:06.637Z,30.38
2022-08-03T14:15:37.778Z,30.73
2022-08-03T14:18:06.637Z,30.83
2022-08-03T14:20:37.876Z,30.80
2022-08-03T14:23:06.179Z,30.84
2022-08-03T14:25:49.876Z,31.02
2022-08-03T14:28:18.899Z,31.23
2022-08-03T14:30:46.178Z,31.43
2022-08-03T14:33:12.735Z,31.54
2022-08-03T14:35:39.356Z,31.93
2022-08-03T14:38:06.261Z,32.44
2022-08-03T14:40:32.922Z,32.82
2022-08-03T14:42:59.563Z,33.06
2022-08-03T14:45:26.156Z,32.87
2022-08-03T14:50:30.176Z,32.93
2022-08-03T14:50:45.460Z,33.14
2022-08-03T14:53:15.510Z,33.15
2022-08-03T14:55:50.607Z,33.26
2022-08-03T14:58:21.482Z,33.44
2022-08-03T15:00:48.518Z,33.70
2022-08-03T15:03:16.599Z,34.12
2022-08-03T15:05:44.397Z,34.32
2022-08-03T15:08:11.006Z,34.47
2022-08-03T15:10:44.029Z,34.38
2022-08-03T15:13:11.950Z,34.38
2022-08-03T15:15:38.518Z,34.42
2022-08-03T15:18:05.184Z,34.28
2022-08-03T15:20:43.263Z,33.95
2022-08-03T15:23:12.151Z,33.87
2022-08-03T15:26:28.791Z,34.13
2022-08-03T15:28:25.315Z,34.24
2022-08-03T15:30:52.737Z,34.46
2022-08-03T15:33:19.331Z,34.63
2022-08-03T15:35:45.894Z,34.56
2022-08-03T15:38:12.419Z,34.19
2022-08-03T15:40:38.980Z,33.77
2022-08-03T15:43:05.737Z,33.40
2022-08-03T15:45:35.339Z,33.28
2022-08-03T15:48:03.663Z,33.51
2022-08-03T15:50:30.243Z,33.29
2022-08-03T15:52:56.898Z,32.90
2022-08-03T15:55:23.400Z,32.81
2022-08-03T15:59:11.069Z,32.87
2022-08-03T16:00:36.772Z,32.50
2022-08-03T16:03:03.310Z,32.31
2022-08-03T16:05:29.937Z,32.26
2022-08-03T16:08:03.042Z,32.57
2022-08-03T16:10:30.824Z,32.51
2022-08-03T16:12:57.577Z,32.21
2022-08-03T16:15:24.272Z,32.05
2022-08-03T16:17:50.809Z,32.53
2022-08-03T16:20:34.282Z,33.19
2022-08-03T16:23:06.989Z,33.69
2022-08-03T16:25:38.587Z,33.51
2022-08-03T16:28:08.097Z,33.13
2022-08-03T16:30:40.391Z,32.77
2022-08-03T16:33:06.914Z,33.03
2022-08-03T16:35:33.619Z,32.95
2022-08-03T16:38:00.551Z,32.78
2022-08-03T16:40:27.246Z,32.52
2022-08-03T16:42:53.890Z,32.28
2022-08-03T16:45:20.802Z,32.01
2022-08-03T16:47:47.327Z,31.76
2022-08-03T16:50:27.901Z,31.53
2022-08-03T16:52:54.482Z,31.51
2022-08-03T16:55:48.704Z,31.78
2022-08-03T16:58:08.415Z,31.86
2022-08-03T17:00:41.502Z,31.95
2022-08-03T17:03:12.770Z,32.44
2022-08-03T17:05:47.629Z,32.96
2022-08-03T17:08:15.435Z,33.11
2022-08-03T17:10:45.454Z,32.72
2022-08-03T17:13:15.185Z,32.33
2022-08-03T17:16:01.388Z,31.71
2022-08-03T17:18:35.324Z,31.63
2022-08-03T17:21:04.260Z,31.31
2022-08-03T17:23:49.923Z,31.20
2022-08-03T17:26:21.937Z,31.00
2022-08-03T17:28:57.812Z,30.74
2022-08-03T17:31:30.866Z,30.63
2022-08-03T17:34:00.917Z,30.47
2022-08-03T17:36:47.476Z,30.27
2022-08-03T17:39:30.798Z,30.06
2022-08-03T17:42:03.160Z,29.94
2022-08-03T17:44:37.644Z,29.87
2022-08-03T17:47:10.875Z,29.75
2022-08-03T17:49:39.992Z,29.69
2022-08-03T17:52:19.385Z,29.65
2022-08-03T17:55:50.714Z,29.62
2022-08-03T17:58:06.660Z,29.54
2022-08-03T18:00:37.407Z,29.24
2022-08-03T18:03:24.481Z,29.34
2022-08-03T18:06:09.065Z,29.29
2022-08-03T18:08:50.465Z,29.17
2022-08-03T18:11:22.031Z,29.09
2022-08-03T18:14:15.922Z,28.72
2022-08-03T18:17:01.686Z,28.83
2022-08-03T18:20:03.451Z,28.81
2022-08-03T18:22:16.047Z,28.69
2022-08-03T18:24:44.428Z,28.65
2022-08-03T18:27:13.965Z,28.64
2022-08-03T18:29:41.997Z,28.57
2022-08-03T18:32:16.752Z,28.21
2022-08-03T18:34:53.299Z,28.09
2022-08-03T18:37:25.179Z,28.21
2022-08-03T18:39:55.635Z,28.05
2022-08-03T18:42:25.789Z,28.13
2022-08-03T18:44:56.380Z,28.09
2022-08-03T18:47:26.213Z,28.04
2022-08-03T18:50:24.249Z,28.00
2022-08-03T18:52:56.532Z,27.96
2022-08-03T18:55:33.432Z,27.84
2022-08-03T18:58:09.527Z,27.68
2022-08-03T19:01:15.220Z,27.57
2022-08-03T19:04:14.293Z,27.21
2022-08-03T19:06:45.457Z,27.22
2022-08-03T19:09:32.340Z,26.76
2022-08-03T19:12:11.109Z,26.98
2022-08-03T19:14:55.799Z,26.56
2022-08-03T19:17:29.433Z,26.77
2022-08-03T19:19:57.895Z,26.66
2022-08-03T19:22:25.515Z,26.52
2022-08-03T19:24:54.397Z,26.46
2022-08-03T19:27:26.968Z,26.34
2022-08-03T19:29:59.583Z,26.34
2022-08-03T19:32:31.753Z,26.29
2022-08-03T19:35:00.090Z,26.20
2022-08-03T19:37:38.270Z,25.94
2022-08-03T19:40:10.723Z,26.14
2022-08-03T19:42:44.319Z,25.89
2022-08-03T19:45:15.381Z,25.98
2022-08-03T19:47:52.765Z,25.59
2022-08-03T19:50:20.530Z,25.91
2022-08-03T19:52:49.312Z,25.84
2022-08-03T19:55:17.605Z,25.73
2022-08-03T19:57:49.331Z,25.37
2022-08-03T20:00:17.384Z,25.63
2022-08-03T20:02:45.213Z,25.58
2022-08-03T20:05:15.248Z,25.53
2022-08-03T20:07:47.864Z,25.20
2022-08-03T20:10:16.997Z,25.45
2022-08-03T20:12:47.824Z,25.10
2022-08-03T20:15:18.340Z,25.38
2022-08-03T20:17:58.677Z,25.34
2022-08-03T20:20:29.433Z,25.03
2022-08-03T20:22:58.334Z,25.01
2022-08-03T20:25:38.835Z,24.95
2022-08-03T20:28:14.175Z,25.15
2022-08-03T20:30:47.426Z,25.15
2022-08-03T20:36:01.718Z,25.05
2022-08-03T20:38:28.239Z,25.03
2022-08-03T20:40:56.034Z,24.99
2022-08-03T20:43:25.740Z,24.95
2022-08-03T20:45:59.158Z,24.89
2022-08-03T20:48:43.297Z,24.85
2022-08-03T20:51:20.183Z,24.79
2022-08-03T20:54:07.846Z,24.76
2022-08-03T20:56:49.652Z,24.70
2022-08-03T20:59:16.600Z,24.66
2022-08-03T21:01:44.389Z,24.53
2022-08-03T21:04:11.462Z,24.55
2022-08-03T21:06:54.427Z,24.48
2022-08-03T21:09:24.132Z,24.44
2022-08-03T21:12:03.035Z,24.33
2022-08-03T21:13:07.091Z,25.10
2022-08-03T21:14:41.601Z,23.98
2022-08-03T21:17:14.324Z,24.28
2022-08-03T21:19:53.291Z,24.19
2022-08-03T21:22:25.927Z,23.86
2022-08-03T21:24:55.967Z,24.11
2022-08-03T21:27:24.168Z,23.71
2022-08-03T21:29:53.343Z,24.00
2022-08-03T21:32:32.514Z,23.59
2022-08-03T21:35:00.629Z,23.86
2022-08-03T21:37:28.264Z,23.79
2022-08-03T21:39:55.907Z,23.71
2022-08-03T21:42:23.398Z,23.66
2022-08-03T21:44:51.800Z,23.29
2022-08-03T21:47:20.834Z,23.55
2022-08-03T21:50:07.378Z,23.49
2022-08-03T21:52:46.146Z,23.43
2022-08-03T21:55:20.398Z,23.31
2022-08-03T21:57:52.229Z,23.24
2022-08-03T22:00:19.876Z,23.22
2022-08-03T22:02:54.607Z,22.96
2022-08-03T22:05:29.112Z,22.88
2022-08-03T22:08:14.553Z,23.05
2022-08-03T22:10:44.244Z,22.98
2022-08-03T22:13:13.180Z,22.78
2022-08-03T22:15:40.230Z,22.82
2022-08-03T22:18:06.861Z,22.79
2022-08-03T22:20:33.555Z,22.73
2022-08-03T22:23:03.342Z,22.41
2022-08-03T22:25:39.154Z,22.28
2022-08-03T22:28:11.789Z,22.57
2022-08-03T22:30:40.449Z,22.54
2022-08-03T22:33:11.139Z,22.52
2022-08-03T22:35:48.830Z,22.17
2022-08-03T22:38:18.922Z,22.08
2022-08-03T22:40:49.040Z,22.39
2022-08-03T22:43:16.356Z,22.28
2022-08-03T22:46:10.478Z,22.32
2022-08-03T22:48:34.361Z,22.21
2022-08-03T22:51:02.565Z,22.18
2022-08-03T22:53:29.929Z,22.19
2022-08-03T22:55:57.289Z,22.19
2022-08-03T22:58:24.869Z,22.17
2022-08-03T23:00:58.097Z,21.82
2022-08-03T23:03:58.934Z,21.81
2022-08-03T23:06:19.416Z,22.00
2022-08-03T23:08:47.211Z,21.92
2022-08-03T23:11:17.613Z,21.78
2022-08-03T23:13:47.129Z,21.86
2022-08-03T23:16:16.042Z,21.61
2022-08-03T23:18:56.238Z,21.81
2022-08-03T23:22:00.639Z,21.52
2022-08-03T23:24:28.463Z,21.81
2022-08-03T23:26:57.189Z,21.78
2022-08-03T23:29:23.805Z,21.70
2022-08-03T23:31:53.482Z,21.69
2022-08-03T23:34:23.307Z,21.42
2022-08-03T23:36:49.819Z,21.65
2022-08-03T23:39:17.500Z,21.63
2022-08-03T23:41:48.417Z,21.55
2022-08-03T23:44:17.636Z,21.59
2022-08-03T23:46:45.563Z,21.51
2022-08-03T23:49:12.126Z,21.53
2022-08-03T23:51:56.826Z,21.51
2022-08-03T23:54:29.003Z,21.40
2022-08-03T23:57:13.904Z,21.36
